createdAt,value
2019-03-06T00:01:35.795Z,1.20
2019-03-06T00:04:04.539Z,1.10
2019-03-06T00:06:33.440Z,1.37
2019-03-06T00:09:02.444Z,1.10
2019-03-06T00:11:31.169Z,1.00
2019-03-06T00:13:59.812Z,1.10
2019-03-06T00:16:28.470Z,1.10
2019-03-06T00:18:57.142Z,1.10
2019-03-06T00:21:26.059Z,1.20
2019-03-06T00:23:54.784Z,1.00
2019-03-06T00:26:23.581Z,0.90
2019-03-06T00:28:52.263Z,1.40
2019-03-06T00:31:21.010Z,0.80
2019-03-06T00:33:49.863Z,1.20
2019-03-06T00:36:21.149Z,1.30
2019-03-06T00:38:49.860Z,1.20
2019-03-06T00:41:23.567Z,1.23
2019-03-06T00:43:52.259Z,1.33
2019-03-06T00:46:20.974Z,1.07
2019-03-06T00:48:49.675Z,1.23
2019-03-06T00:51:18.299Z,1.20
2019-03-06T00:53:47.017Z,1.17
2019-03-06T00:56:15.691Z,1.40
2019-03-06T00:58:44.292Z,1.37
2019-03-06T01:01:13.775Z,1.40
2019-03-06T01:03:42.540Z,1.20
2019-03-06T01:06:11.250Z,1.20
2019-03-06T01:08:39.858Z,1.23
2019-03-06T01:11:08.691Z,1.50
2019-03-06T01:13:37.382Z,1.50
2019-03-06T01:16:06.033Z,1.37
2019-03-06T01:18:34.777Z,1.53
2019-03-06T01:21:03.462Z,1.33
2019-03-06T01:23:32.128Z,1.30
2019-03-06T01:26:00.787Z,1.30
2019-03-06T01:28:29.461Z,1.40
2019-03-06T01:30:58.152Z,1.17
2019-03-06T01:33:51.815Z,1.20
2019-03-06T01:36:39.657Z,1.10
2019-03-06T01:39:29.108Z,1.20
2019-03-06T01:42:03.098Z,1.10
2019-03-06T01:44:56.681Z,1.40
2019-03-06T01:47:25.449Z,1.33
2019-03-06T01:49:54.203Z,1.40
2019-03-06T01:52:22.891Z,1.50
2019-03-06T01:54:51.603Z,1.53
2019-03-06T01:57:20.366Z,1.00
2019-03-06T01:59:50.027Z,1.40
2019-03-06T02:02:19.210Z,1.20
2019-03-06T02:04:47.867Z,1.30
2019-03-06T02:07:16.698Z,1.20
2019-03-06T02:09:45.474Z,1.40
2019-03-06T02:12:14.213Z,1.40
2019-03-06T02:14:42.908Z,1.47
2019-03-06T02:17:11.608Z,1.87
2019-03-06T02:19:40.274Z,1.77
2019-03-06T02:22:08.950Z,2.20
2019-03-06T02:24:37.609Z,1.80
2019-03-06T02:27:06.237Z,1.80
2019-03-06T02:29:34.829Z,1.80
2019-03-06T02:32:03.460Z,2.20
2019-03-06T02:34:32.315Z,2.40
2019-03-06T02:37:01.021Z,2.10
2019-03-06T02:39:29.671Z,2.50
2019-03-06T02:41:58.421Z,2.70
2019-03-06T02:44:27.141Z,2.40
2019-03-06T02:46:55.850Z,2.37
2019-03-06T02:49:24.570Z,2.63
2019-03-06T02:51:53.250Z,2.77
2019-03-06T02:54:21.993Z,2.57
2019-03-06T02:56:50.747Z,2.87
2019-03-06T02:59:33.883Z,2.93
2019-03-06T03:02:24.506Z,2.93
2019-03-06T03:05:15.086Z,3.27
2019-03-06T03:07:43.815Z,3.30
2019-03-06T03:10:12.533Z,3.53
2019-03-06T03:12:41.429Z,3.00
2019-03-06T03:15:10.170Z,3.50
2019-03-06T03:17:38.742Z,3.50
2019-03-06T03:20:07.640Z,3.87
2019-03-06T03:22:36.330Z,4.20
2019-03-06T03:25:05.524Z,4.00
2019-03-06T03:27:34.183Z,4.03
2019-03-06T03:30:02.828Z,4.43
2019-03-06T03:32:31.575Z,4.33
2019-03-06T03:35:00.605Z,3.83
2019-03-06T03:37:29.438Z,4.10
2019-03-06T03:39:58.052Z,4.53
2019-03-06T03:42:26.922Z,4.73
2019-03-06T03:44:55.535Z,4.63
2019-03-06T03:47:24.210Z,5.13
2019-03-06T03:49:52.883Z,4.50
2019-03-06T03:52:21.562Z,5.53
2019-03-06T03:54:50.182Z,5.43
2019-03-06T03:57:18.961Z,5.83
2019-03-06T03:59:47.622Z,5.83
2019-03-06T04:02:16.319Z,5.47
2019-03-06T04:04:44.950Z,5.43
2019-03-06T04:07:13.602Z,5.90
2019-03-06T04:09:42.548Z,6.33
2019-03-06T04:12:11.232Z,6.37
2019-03-06T04:14:39.966Z,7.00
2019-03-06T04:17:08.651Z,7.03
2019-03-06T04:19:37.352Z,6.27
2019-03-06T04:22:06.075Z,7.27
2019-03-06T04:24:34.789Z,8.03
2019-03-06T04:27:03.440Z,8.03
2019-03-06T04:29:32.207Z,7.93
2019-03-06T04:32:00.881Z,7.83
2019-03-06T04:34:29.637Z,7.63
2019-03-06T04:36:58.278Z,7.97
2019-03-06T04:39:27.032Z,7.70
2019-03-06T04:41:55.769Z,7.60
2019-03-06T04:44:24.456Z,7.57
2019-03-06T04:46:53.098Z,7.33
2019-03-06T04:49:21.902Z,7.83
2019-03-06T04:51:50.660Z,7.47
2019-03-06T04:54:19.313Z,8.80
2019-03-06T04:56:48.011Z,8.27
2019-03-06T04:59:16.679Z,8.87
2019-03-06T05:01:45.639Z,8.37
2019-03-06T05:04:14.440Z,7.90
2019-03-06T05:06:43.800Z,7.97
2019-03-06T05:09:12.607Z,7.77
2019-03-06T05:11:41.350Z,7.90
2019-03-06T05:14:10.334Z,7.83
2019-03-06T05:16:50.831Z,8.57
2019-03-06T05:19:19.490Z,7.67
2019-03-06T05:21:48.210Z,7.47
2019-03-06T05:24:16.878Z,8.27
2019-03-06T05:26:45.464Z,8.43
2019-03-06T05:29:14.263Z,8.65
2019-03-06T05:32:02.159Z,8.28
2019-03-06T05:34:31.024Z,8.30
2019-03-06T05:37:08.947Z,8.20
2019-03-06T05:39:37.620Z,8.70
2019-03-06T05:42:06.316Z,9.10
2019-03-06T05:44:35.159Z,8.30
2019-03-06T05:47:03.837Z,8.85
2019-03-06T05:49:32.594Z,9.27
2019-03-06T05:52:01.339Z,9.60
2019-03-06T05:54:29.909Z,10.10
2019-03-06T05:56:58.619Z,10.10
2019-03-06T05:59:27.294Z,10.67
2019-03-06T06:01:55.986Z,9.80
2019-03-06T06:04:24.702Z,12.93
2019-03-06T06:06:53.374Z,13.93
2019-03-06T06:09:22.141Z,14.70
2019-03-06T06:11:50.843Z,13.77
2019-03-06T06:17:15.149Z,13.60
2019-03-06T06:19:43.987Z,13.53
2019-03-06T06:22:29.475Z,12.87
2019-03-06T06:24:58.340Z,13.30
2019-03-06T06:30:43.662Z,13.30
2019-03-06T06:33:12.411Z,13.27
2019-03-06T06:35:41.191Z,12.77
2019-03-06T06:38:09.946Z,10.17
2019-03-06T06:40:38.854Z,10.70
2019-03-06T06:51:17.435Z,8.87
2019-03-06T06:53:54.874Z,9.13
2019-03-06T06:56:44.163Z,9.23
2019-03-06T06:59:31.576Z,8.63
2019-03-06T07:02:52.227Z,8.73
2019-03-06T07:05:42.900Z,8.80
2019-03-06T11:57:19.114Z,1.30
2019-03-06T11:59:47.839Z,1.20
2019-03-06T12:02:16.971Z,1.30
2019-03-06T12:04:45.653Z,1.20
2019-03-06T12:07:14.446Z,1.20
2019-03-06T12:09:43.224Z,1.27
2019-03-06T12:12:11.952Z,1.30
2019-03-06T12:14:40.681Z,1.33
2019-03-06T12:17:09.369Z,1.20
2019-03-06T12:19:38.230Z,1.10
2019-03-06T12:22:07.032Z,1.13
2019-03-06T12:24:35.812Z,1.43
2019-03-06T12:27:04.552Z,1.40
2019-03-06T12:29:33.220Z,1.00
2019-03-06T12:32:02.309Z,1.27
2019-03-06T12:34:31.020Z,1.10
2019-03-06T12:36:59.797Z,1.10
2019-03-06T12:39:28.599Z,1.30
2019-03-06T12:41:58.831Z,1.20
2019-03-06T12:44:27.742Z,1.17
2019-03-06T12:46:57.190Z,1.23
2019-03-06T12:49:26.950Z,1.47
2019-03-06T12:51:55.613Z,1.30
2019-03-06T12:54:24.352Z,1.50
2019-03-06T12:56:53.144Z,1.40
2019-03-06T12:59:21.832Z,1.20
2019-03-06T13:01:50.566Z,1.20
2019-03-06T13:04:20.719Z,1.20
2019-03-06T13:06:49.533Z,1.50
2019-03-06T13:09:18.608Z,1.40
2019-03-06T13:11:47.518Z,1.57
2019-03-06T13:14:16.341Z,1.50
2019-03-06T13:16:45.372Z,1.57
2019-03-06T13:19:14.088Z,1.37
2019-03-06T13:21:42.995Z,1.30
2019-03-06T13:24:12.497Z,1.30
2019-03-06T13:26:41.288Z,2.07
2019-03-06T13:29:10.081Z,1.63
2019-03-06T13:31:38.837Z,1.63
2019-03-06T13:34:29.677Z,1.67
2019-03-06T13:36:58.583Z,1.50
2019-03-06T13:39:27.438Z,1.47
2019-03-06T13:41:56.238Z,1.70
2019-03-06T13:44:25.034Z,1.37
2019-03-06T13:46:53.750Z,1.47
2019-03-06T13:49:22.579Z,1.30
2019-03-06T13:51:51.543Z,1.60
2019-03-06T13:54:20.341Z,1.50
2019-03-06T13:56:49.296Z,1.70
2019-03-06T13:59:18.338Z,1.67
2019-03-06T14:01:47.328Z,1.60
2019-03-06T14:04:16.077Z,1.63
2019-03-06T14:06:44.745Z,1.53
2019-03-06T14:09:15.068Z,1.63
2019-03-06T14:11:43.899Z,1.40
2019-03-06T14:14:12.675Z,1.80
2019-03-06T14:16:41.499Z,1.63
2019-03-06T14:19:10.353Z,1.50
2019-03-06T14:21:39.069Z,1.87
2019-03-06T14:24:07.945Z,1.73
2019-03-06T14:26:36.957Z,1.83
2019-03-06T14:29:05.652Z,1.70
2019-03-06T14:31:34.495Z,1.80
2019-03-06T14:34:03.231Z,1.60
2019-03-06T14:36:31.994Z,1.43
2019-03-06T14:39:00.719Z,1.70
2019-03-06T14:41:29.709Z,1.67
2019-03-06T14:43:58.386Z,1.67
2019-03-06T14:46:27.178Z,1.80
2019-03-06T14:48:55.987Z,1.80
2019-03-06T14:51:24.762Z,1.90
2019-03-06T14:53:53.547Z,1.67
2019-03-06T14:56:22.331Z,1.50
2019-03-06T14:58:51.111Z,1.67
2019-03-06T15:01:19.892Z,1.73
2019-03-06T15:03:48.713Z,2.00
2019-03-06T15:06:17.604Z,1.50
2019-03-06T15:08:46.406Z,1.73
2019-03-06T15:11:15.189Z,1.50
2019-03-06T15:13:44.004Z,1.90
2019-03-06T15:16:12.853Z,1.90
2019-03-06T15:18:41.664Z,1.90
2019-03-06T15:21:10.507Z,1.83
2019-03-06T15:23:39.321Z,2.27
2019-03-06T15:26:09.926Z,2.07
2019-03-06T15:28:38.848Z,1.83
2019-03-06T15:31:07.755Z,2.10
2019-03-06T15:33:36.525Z,2.20
2019-03-06T15:36:05.468Z,1.70
2019-03-06T15:38:34.080Z,1.63
2019-03-06T15:41:03.030Z,1.87
2019-03-06T15:43:31.956Z,1.90
2019-03-06T15:46:00.824Z,2.00
2019-03-06T15:48:29.643Z,1.93
2019-03-06T15:50:58.483Z,2.13
2019-03-06T15:53:27.255Z,2.10
2019-03-06T15:55:56.237Z,2.00
2019-03-06T15:58:25.017Z,2.20
2019-03-06T16:00:53.784Z,2.00
2019-03-06T16:03:22.719Z,1.97
2019-03-06T16:05:51.486Z,2.67
2019-03-06T16:08:20.280Z,3.23
2019-03-06T16:10:49.330Z,2.60
2019-03-06T16:13:18.162Z,2.47
2019-03-06T16:15:46.941Z,2.00
2019-03-06T16:18:15.726Z,2.20
2019-03-06T16:20:44.654Z,2.20
2019-03-06T16:23:14.111Z,2.20
2019-03-06T16:25:42.905Z,2.27
2019-03-06T16:28:11.746Z,2.20
2019-03-06T16:30:40.566Z,2.17
2019-03-06T16:33:09.328Z,1.90
2019-03-06T16:35:38.210Z,2.10
2019-03-06T16:38:07.185Z,1.87
2019-03-06T16:40:36.238Z,1.80
2019-03-06T16:43:05.144Z,2.30
2019-03-06T16:45:33.876Z,2.37
2019-03-06T16:48:02.573Z,2.23
2019-03-06T16:50:31.375Z,2.10
2019-03-06T16:53:00.179Z,2.10
2019-03-06T16:55:28.938Z,2.20
2019-03-06T16:57:58.063Z,1.90
2019-03-06T17:00:28.007Z,2.00
2019-03-06T17:02:56.966Z,2.10
2019-03-06T17:05:25.704Z,1.90
2019-03-06T17:07:54.950Z,2.40
2019-03-06T17:10:23.746Z,2.40
2019-03-06T17:12:52.746Z,2.40
2019-03-06T17:15:22.042Z,1.90
2019-03-06T17:17:50.870Z,2.30
2019-03-06T17:20:20.680Z,2.20
2019-03-06T17:22:49.681Z,3.30
2019-03-06T17:25:18.564Z,2.50
2019-03-06T17:27:47.395Z,2.50
2019-03-06T17:30:20.133Z,2.37
2019-03-06T17:33:07.720Z,2.53
2019-03-06T17:35:36.758Z,2.80
2019-03-06T17:38:09.320Z,3.37
2019-03-06T17:40:38.282Z,3.43
2019-03-06T17:43:07.886Z,3.57
2019-03-06T17:45:36.711Z,4.50
2019-03-06T17:48:05.538Z,3.77
2019-03-06T17:50:34.391Z,3.67
2019-03-06T17:53:03.359Z,3.87
2019-03-06T17:55:36.192Z,4.07
2019-03-06T17:58:05.094Z,4.27
2019-03-06T18:00:59.277Z,3.90
2019-03-06T18:03:42.825Z,3.90
2019-03-06T18:06:11.674Z,5.00
2019-03-06T18:08:40.427Z,4.90
2019-03-06T18:11:09.347Z,23.13
2019-03-06T18:13:38.163Z,4.97
2019-03-06T18:16:07.063Z,4.40
2019-03-06T18:18:35.834Z,3.97
2019-03-06T18:21:04.645Z,3.90
2019-03-06T18:23:34.391Z,3.60
2019-03-06T18:26:03.276Z,3.00
2019-03-06T18:28:32.020Z,3.70
2019-03-06T18:31:00.811Z,3.30
2019-03-06T18:33:29.589Z,3.83
2019-03-06T18:35:59.111Z,3.80
2019-03-06T18:38:28.182Z,4.00
2019-03-06T18:40:56.985Z,3.83
2019-03-06T18:43:25.758Z,3.57
2019-03-06T18:45:54.572Z,3.97
2019-03-06T18:48:23.422Z,3.90
2019-03-06T18:50:52.198Z,4.27
2019-03-06T18:53:21.070Z,3.90
2019-03-06T18:55:49.836Z,4.50
2019-03-06T18:58:18.794Z,4.93
2019-03-06T19:00:47.622Z,5.23
2019-03-06T19:03:16.555Z,4.87
2019-03-06T19:05:45.327Z,5.10
2019-03-06T19:08:14.214Z,4.53
2019-03-06T19:10:42.998Z,4.80
2019-03-06T19:13:12.555Z,4.67
2019-03-06T19:15:41.357Z,4.20
2019-03-06T19:18:10.118Z,4.80
2019-03-06T19:20:38.981Z,5.07
2019-03-06T19:23:07.929Z,4.80
2019-03-06T19:25:36.728Z,4.93
2019-03-06T19:28:06.896Z,4.90
2019-03-06T19:30:35.788Z,4.87
2019-03-06T19:33:04.593Z,5.00
2019-03-06T19:35:33.430Z,5.47
2019-03-06T19:38:02.451Z,5.20
2019-03-06T19:40:33.433Z,6.23
2019-03-06T19:43:01.823Z,5.40
2019-03-06T19:45:30.606Z,5.67
2019-03-06T19:47:59.456Z,4.97
2019-03-06T19:50:28.386Z,5.87
2019-03-06T19:52:57.161Z,5.30
2019-03-06T19:55:26.441Z,5.80
2019-03-06T19:57:56.127Z,5.33
2019-03-06T20:00:25.553Z,5.40
2019-03-06T20:02:54.899Z,6.27
2019-03-06T20:05:24.459Z,5.43
2019-03-06T20:07:53.376Z,6.07
2019-03-06T20:10:22.570Z,5.67
2019-03-06T20:12:51.290Z,6.00
2019-03-06T20:15:20.099Z,5.57
2019-03-06T20:17:48.870Z,6.00
2019-03-06T20:20:17.916Z,5.73
2019-03-06T20:22:46.901Z,5.63
2019-03-06T20:25:16.520Z,6.40
2019-03-06T20:27:45.343Z,5.10
2019-03-06T20:30:17.011Z,6.00
2019-03-06T20:32:47.220Z,5.73
2019-03-06T20:35:18.265Z,5.90
2019-03-06T20:37:47.080Z,4.77
2019-03-06T20:40:15.890Z,5.90
2019-03-06T20:42:44.700Z,5.40
2019-03-06T20:45:13.555Z,5.70
2019-03-06T20:47:42.345Z,5.87
2019-03-06T20:50:11.114Z,6.10
2019-03-06T20:52:39.958Z,6.73
2019-03-06T20:55:08.729Z,6.83
2019-03-06T20:57:37.681Z,6.53
2019-03-06T21:00:06.613Z,6.83
2019-03-06T21:02:36.354Z,6.17
2019-03-06T21:05:05.407Z,7.10
2019-03-06T21:07:38.251Z,8.33
2019-03-06T21:10:05.051Z,7.80
2019-03-06T21:12:33.828Z,8.00
2019-03-06T21:15:02.594Z,7.73
2019-03-06T21:17:31.541Z,8.40
2019-03-06T21:20:00.409Z,7.40
2019-03-06T21:22:29.171Z,7.90
2019-03-06T21:24:57.997Z,8.00
2019-03-06T21:27:26.716Z,8.30
2019-03-06T21:29:55.444Z,7.27
2019-03-06T21:32:24.443Z,8.17
2019-03-06T21:34:53.235Z,6.90
2019-03-06T21:37:21.974Z,6.83
2019-03-06T21:39:50.773Z,8.07
2019-03-06T21:42:19.568Z,7.73
2019-03-06T21:44:48.343Z,7.20
2019-03-06T21:47:17.150Z,8.57
2019-03-06T21:49:46.017Z,7.80
2019-03-06T21:52:14.794Z,7.37
2019-03-06T21:54:43.540Z,7.30
2019-03-06T21:57:12.248Z,7.10
2019-03-06T21:59:41.062Z,7.13
2019-03-06T22:02:09.891Z,7.37
2019-03-06T22:04:40.209Z,6.73
2019-03-06T22:07:09.008Z,6.87
2019-03-06T22:09:37.667Z,6.60
2019-03-06T22:12:06.460Z,6.70
2019-03-06T22:14:35.170Z,6.27
2019-03-06T22:17:03.884Z,6.83
2019-03-06T22:19:32.927Z,6.30
2019-03-06T22:22:01.648Z,6.53
2019-03-06T22:24:30.332Z,6.50
2019-03-06T22:26:59.080Z,6.47
2019-03-06T22:29:27.800Z,6.27
2019-03-06T22:31:56.617Z,6.63
2019-03-06T22:34:25.555Z,6.20
2019-03-06T22:36:54.368Z,6.17
2019-03-06T22:39:23.090Z,6.63
2019-03-06T22:41:51.843Z,6.60
2019-03-06T22:44:20.589Z,6.77
2019-03-06T22:46:49.332Z,6.07
2019-03-06T22:49:18.141Z,6.27
2019-03-06T22:51:46.915Z,6.60
2019-03-06T22:54:15.699Z,6.47
2019-03-06T22:56:44.422Z,6.40
2019-03-06T22:59:13.166Z,6.57
2019-03-06T23:01:42.138Z,6.90
2019-03-06T23:04:10.823Z,6.43
2019-03-06T23:06:39.612Z,7.10
2019-03-06T23:09:10.383Z,6.70
2019-03-06T23:11:39.743Z,6.57
2019-03-06T23:14:08.460Z,6.70
2019-03-06T23:16:37.150Z,6.73
2019-03-06T23:19:06.020Z,9.30
2019-03-06T23:21:34.798Z,8.03
2019-03-06T23:24:03.598Z,7.73
2019-03-06T23:26:42.233Z,5.97
2019-03-06T23:29:02.898Z,6.60
2019-03-06T23:31:31.752Z,6.80
2019-03-06T23:34:00.591Z,6.17
2019-03-06T23:36:29.379Z,6.30
2019-03-06T23:38:58.129Z,6.87
2019-03-06T23:41:28.027Z,7.13
2019-03-06T23:43:56.708Z,7.27
2019-03-06T23:46:25.532Z,7.43
2019-03-06T23:48:54.309Z,7.30
2019-03-06T23:51:30.672Z,8.30
2019-03-06T23:53:59.383Z,7.10
2019-03-06T23:56:28.161Z,7.10
2019-03-06T23:58:56.867Z,7.63
